sensor_id;sensor_type;location;lat;lon;timestamp;temperature;humidity
62912;DHT22;49111;51.028;4.218;2022-09-09T00:00:25;15.80;99.90
62912;DHT22;49111;51.028;4.218;2022-09-09T00:03:12;15.80;99.90
62912;DHT22;49111;51.028;4.218;2022-09-09T00:09:15;15.80;99.90
62912;DHT22;49111;51.028;4.218;2022-09-09T00:11:54;15.80;99.90
62912;DHT22;49111;51.028;4.218;2022-09-09T00:17:05;15.70;99.90
62912;DHT22;49111;51.028;4.218;2022-09-09T00:19:44;15.80;99.90
62912;DHT22;49111;51.028;4.218;2022-09-09T00:22:20;15.70;99.90
62912;DHT22;49111;51.028;4.218;2022-09-09T00:24:54;15.70;99.90
62912;DHT22;49111;51.028;4.218;2022-09-09T00:32:36;15.70;99.90
62912;DHT22;49111;51.028;4.218;2022-09-09T00:35:14;15.70;99.90
62912;DHT22;49111;51.028;4.218;2022-09-09T00:37:42;15.80;99.90
62912;DHT22;49111;51.028;4.218;2022-09-09T00:40:37;15.80;99.90
62912;DHT22;49111;51.028;4.218;2022-09-09T00:46:25;15.80;99.90
62912;DHT22;49111;51.028;4.218;2022-09-09T00:49:09;15.70;99.90
62912;DHT22;49111;51.028;4.218;2022-09-09T00:54:36;15.70;99.90
62912;DHT22;49111;51.028;4.218;2022-09-09T01:05:07;15.70;99.90
62912;DHT22;49111;51.028;4.218;2022-09-09T01:07:36;15.70;99.90
62912;DHT22;49111;51.028;4.218;2022-09-09T01:10:08;15.70;99.90
62912;DHT22;49111;51.028;4.218;2022-09-09T01:12:42;15.70;99.90
62912;DHT22;49111;51.028;4.218;2022-09-09T01:15:21;15.80;99.90
62912;DHT22;49111;51.028;4.218;2022-09-09T01:18:11;15.80;99.90
62912;DHT22;49111;51.028;4.218;2022-09-09T01:24:03;15.80;99.90
62912;DHT22;49111;51.028;4.218;2022-09-09T01:26:47;15.90;99.90
62912;DHT22;49111;51.028;4.218;2022-09-09T01:29:23;15.80;99.90
62912;DHT22;49111;51.028;4.218;2022-09-09T01:31:57;15.70;99.90
62912;DHT22;49111;51.028;4.218;2022-09-09T01:34:26;15.70;99.90
62912;DHT22;49111;51.028;4.218;2022-09-09T01:37:03;15.70;99.90
62912;DHT22;49111;51.028;4.218;2022-09-09T01:39:33;15.70;99.90
62912;DHT22;49111;51.028;4.218;2022-09-09T01:42:04;15.60;99.90
62912;DHT22;49111;51.028;4.218;2022-09-09T01:44:32;15.60;99.90
62912;DHT22;49111;51.028;4.218;2022-09-09T01:46:59;15.50;99.90
62912;DHT22;49111;51.028;4.218;2022-09-09T01:49:25;15.50;99.90
62912;DHT22;49111;51.028;4.218;2022-09-09T01:51:53;15.60;99.90
62912;DHT22;49111;51.028;4.218;2022-09-09T01:54:29;15.70;99.90
62912;DHT22;49111;51.028;4.218;2022-09-09T01:57:26;15.70;99.90
62912;DHT22;49111;51.028;4.218;2022-09-09T02:00:07;15.70;99.90
62912;DHT22;49111;51.028;4.218;2022-09-09T02:07:49;15.70;99.90
62912;DHT22;49111;51.028;4.218;2022-09-09T02:10:46;15.70;99.90
62912;DHT22;49111;51.028;4.218;2022-09-09T02:13:26;15.70;99.90
62912;DHT22;49111;51.028;4.218;2022-09-09T02:18:52;15.70;99.90
62912;DHT22;49111;51.028;4.218;2022-09-09T02:21:30;15.60;99.90
62912;DHT22;49111;51.028;4.218;2022-09-09T02:23:59;15.60;99.90
62912;DHT22;49111;51.028;4.218;2022-09-09T02:26:29;15.60;99.90
62912;DHT22;49111;51.028;4.218;2022-09-09T02:29:03;15.70;99.90
62912;DHT22;49111;51.028;4.218;2022-09-09T02:31:30;15.70;99.90
62912;DHT22;49111;51.028;4.218;2022-09-09T02:34:03;15.70;99.90
62912;DHT22;49111;51.028;4.218;2022-09-09T02:36:32;15.70;99.90
62912;DHT22;49111;51.028;4.218;2022-09-09T02:39:00;15.70;99.90
62912;DHT22;49111;51.028;4.218;2022-09-09T02:41:35;15.70;99.90
62912;DHT22;49111;51.028;4.218;2022-09-09T02:44:08;15.70;99.90
62912;DHT22;49111;51.028;4.218;2022-09-09T02:49:16;15.80;99.90
62912;DHT22;49111;51.028;4.218;2022-09-09T02:51:53;15.80;99.90
62912;DHT22;49111;51.028;4.218;2022-09-09T02:54:28;15.70;99.90
62912;DHT22;49111;51.028;4.218;2022-09-09T02:57:02;15.80;99.90
62912;DHT22;49111;51.028;4.218;2022-09-09T02:59:34;15.80;99.90
62912;DHT22;49111;51.028;4.218;2022-09-09T03:01:59;15.80;99.90
62912;DHT22;49111;51.028;4.218;2022-09-09T03:04:26;15.80;99.90
62912;DHT22;49111;51.028;4.218;2022-09-09T03:06:52;15.90;99.90
62912;DHT22;49111;51.028;4.218;2022-09-09T03:09:20;15.90;99.90
62912;DHT22;49111;51.028;4.218;2022-09-09T03:11:45;15.90;99.90
62912;DHT22;49111;51.028;4.218;2022-09-09T03:14:13;15.80;99.90
62912;DHT22;49111;51.028;4.218;2022-09-09T03:16:40;15.80;99.90
62912;DHT22;49111;51.028;4.218;2022-09-09T03:19:06;15.90;99.90
62912;DHT22;49111;51.028;4.218;2022-09-09T03:21:32;15.90;99.90
62912;DHT22;49111;51.028;4.218;2022-09-09T03:23:58;15.90;99.90
62912;DHT22;49111;51.028;4.218;2022-09-09T03:26:24;15.90;99.90
62912;DHT22;49111;51.028;4.218;2022-09-09T03:28:50;15.80;99.90
62912;DHT22;49111;51.028;4.218;2022-09-09T03:31:18;15.80;99.90
62912;DHT22;49111;51.028;4.218;2022-09-09T03:33:45;15.80;99.90
62912;DHT22;49111;51.028;4.218;2022-09-09T03:36:14;15.80;99.90
62912;DHT22;49111;51.028;4.218;2022-09-09T03:38:41;15.90;99.90
62912;DHT22;49111;51.028;4.218;2022-09-09T03:41:07;15.90;99.90
62912;DHT22;49111;51.028;4.218;2022-09-09T03:43:34;15.80;99.90
62912;DHT22;49111;51.028;4.218;2022-09-09T03:46:00;15.90;99.90
62912;DHT22;49111;51.028;4.218;2022-09-09T03:48:27;15.80;99.90
62912;DHT22;49111;51.028;4.218;2022-09-09T03:50:54;15.80;99.90
62912;DHT22;49111;51.028;4.218;2022-09-09T03:53:23;15.80;99.90
62912;DHT22;49111;51.028;4.218;2022-09-09T03:55:52;15.80;99.90
62912;DHT22;49111;51.028;4.218;2022-09-09T03:58:22;15.80;99.90
62912;DHT22;49111;51.028;4.218;2022-09-09T04:00:57;15.80;99.90
62912;DHT22;49111;51.028;4.218;2022-09-09T04:03:25;15.90;99.90
62912;DHT22;49111;51.028;4.218;2022-09-09T04:05:52;15.90;99.90
62912;DHT22;49111;51.028;4.218;2022-09-09T04:08:20;15.90;99.90
62912;DHT22;49111;51.028;4.218;2022-09-09T04:10:48;16.00;99.90
62912;DHT22;49111;51.028;4.218;2022-09-09T04:13:16;16.00;99.90
62912;DHT22;49111;51.028;4.218;2022-09-09T04:15:44;15.90;99.90
62912;DHT22;49111;51.028;4.218;2022-09-09T04:18:15;15.90;99.90
62912;DHT22;49111;51.028;4.218;2022-09-09T04:20:41;16.00;99.90
62912;DHT22;49111;51.028;4.218;2022-09-09T04:23:09;15.90;99.90
62912;DHT22;49111;51.028;4.218;2022-09-09T04:25:35;15.90;99.90
62912;DHT22;49111;51.028;4.218;2022-09-09T04:28:01;15.90;99.90
62912;DHT22;49111;51.028;4.218;2022-09-09T04:30:28;16.00;99.90
62912;DHT22;49111;51.028;4.218;2022-09-09T04:32:54;16.10;99.90
62912;DHT22;49111;51.028;4.218;2022-09-09T04:35:20;16.10;99.90
62912;DHT22;49111;51.028;4.218;2022-09-09T04:37:46;16.10;99.90
62912;DHT22;49111;51.028;4.218;2022-09-09T04:40:12;15.90;99.90
62912;DHT22;49111;51.028;4.218;2022-09-09T04:42:39;15.90;99.90
62912;DHT22;49111;51.028;4.218;2022-09-09T04:45:06;15.80;99.90
62912;DHT22;49111;51.028;4.218;2022-09-09T04:47:33;15.90;99.90
62912;DHT22;49111;51.028;4.218;2022-09-09T04:50:01;15.80;99.90
62912;DHT22;49111;51.028;4.218;2022-09-09T04:52:28;15.90;99.90
62912;DHT22;49111;51.028;4.218;2022-09-09T04:54:53;15.90;99.90
62912;DHT22;49111;51.028;4.218;2022-09-09T04:57:19;15.90;99.90
62912;DHT22;49111;51.028;4.218;2022-09-09T04:59:46;15.90;99.90
62912;DHT22;49111;51.028;4.218;2022-09-09T05:02:13;15.90;99.90
62912;DHT22;49111;51.028;4.218;2022-09-09T05:04:39;16.00;99.90
62912;DHT22;49111;51.028;4.218;2022-09-09T05:07:06;16.00;99.90
62912;DHT22;49111;51.028;4.218;2022-09-09T05:09:32;16.00;99.90
62912;DHT22;49111;51.028;4.218;2022-09-09T05:11:59;15.90;99.90
62912;DHT22;49111;51.028;4.218;2022-09-09T05:14:34;15.90;99.90
62912;DHT22;49111;51.028;4.218;2022-09-09T05:17:04;16.00;99.90
62912;DHT22;49111;51.028;4.218;2022-09-09T05:19:30;16.10;99.90
62912;DHT22;49111;51.028;4.218;2022-09-09T05:21:56;16.10;99.90
62912;DHT22;49111;51.028;4.218;2022-09-09T05:24:29;16.20;99.90
62912;DHT22;49111;51.028;4.218;2022-09-09T05:26:59;16.20;99.90
62912;DHT22;49111;51.028;4.218;2022-09-09T05:29:27;16.20;99.90
62912;DHT22;49111;51.028;4.218;2022-09-09T05:31:54;16.10;99.90
62912;DHT22;49111;51.028;4.218;2022-09-09T05:34:20;16.20;99.90
62912;DHT22;49111;51.028;4.218;2022-09-09T05:36:46;16.30;99.90
62912;DHT22;49111;51.028;4.218;2022-09-09T05:39:13;16.40;99.90
62912;DHT22;49111;51.028;4.218;2022-09-09T05:41:40;16.40;99.90
62912;DHT22;49111;51.028;4.218;2022-09-09T05:44:05;16.40;99.90
62912;DHT22;49111;51.028;4.218;2022-09-09T05:46:35;16.40;99.90
62912;DHT22;49111;51.028;4.218;2022-09-09T05:49:02;16.40;99.90
62912;DHT22;49111;51.028;4.218;2022-09-09T05:51:30;16.40;99.90
62912;DHT22;49111;51.028;4.218;2022-09-09T05:53:58;16.40;99.90
62912;DHT22;49111;51.028;4.218;2022-09-09T05:56:30;16.50;99.90
62912;DHT22;49111;51.028;4.218;2022-09-09T05:58:57;16.50;99.90
62912;DHT22;49111;51.028;4.218;2022-09-09T06:01:29;16.50;99.90
62912;DHT22;49111;51.028;4.218;2022-09-09T06:03:56;16.60;99.90
62912;DHT22;49111;51.028;4.218;2022-09-09T06:06:30;16.60;99.90
62912;DHT22;49111;51.028;4.218;2022-09-09T06:08:58;16.60;99.90
62912;DHT22;49111;51.028;4.218;2022-09-09T06:11:28;16.50;99.90
62912;DHT22;49111;51.028;4.218;2022-09-09T06:13:59;16.60;99.90
62912;DHT22;49111;51.028;4.218;2022-09-09T06:16:27;16.70;99.90
62912;DHT22;49111;51.028;4.218;2022-09-09T06:18:54;16.70;99.90
62912;DHT22;49111;51.028;4.218;2022-09-09T06:21:28;16.60;99.90
62912;DHT22;49111;51.028;4.218;2022-09-09T06:23:56;16.70;99.90
62912;DHT22;49111;51.028;4.218;2022-09-09T06:26:30;16.70;99.90
62912;DHT22;49111;51.028;4.218;2022-09-09T06:28:57;16.80;99.90
62912;DHT22;49111;51.028;4.218;2022-09-09T06:31:25;16.90;99.90
62912;DHT22;49111;51.028;4.218;2022-09-09T06:33:53;16.80;99.90
62912;DHT22;49111;51.028;4.218;2022-09-09T06:36:23;16.90;99.90
62912;DHT22;49111;51.028;4.218;2022-09-09T06:38:49;17.10;99.90
62912;DHT22;49111;51.028;4.218;2022-09-09T06:41:17;17.10;99.90
62912;DHT22;49111;51.028;4.218;2022-09-09T06:43:45;17.10;99.90
62912;DHT22;49111;51.028;4.218;2022-09-09T06:46:14;17.00;99.90
62912;DHT22;49111;51.028;4.218;2022-09-09T06:48:41;17.10;99.90
62912;DHT22;49111;51.028;4.218;2022-09-09T06:51:09;17.10;99.90
62912;DHT22;49111;51.028;4.218;2022-09-09T06:53:38;17.20;99.90
62912;DHT22;49111;51.028;4.218;2022-09-09T06:58:37;17.30;99.90
62912;DHT22;49111;51.028;4.218;2022-09-09T07:01:10;17.30;99.90
62912;DHT22;49111;51.028;4.218;2022-09-09T07:03:39;17.30;99.90
62912;DHT22;49111;51.028;4.218;2022-09-09T07:06:06;17.30;99.90
62912;DHT22;49111;51.028;4.218;2022-09-09T07:08:33;17.30;99.90
62912;DHT22;49111;51.028;4.218;2022-09-09T07:11:07;17.30;99.90
62912;DHT22;49111;51.028;4.218;2022-09-09T07:13:35;17.40;99.90
62912;DHT22;49111;51.028;4.218;2022-09-09T07:16:09;17.50;99.90
62912;DHT22;49111;51.028;4.218;2022-09-09T07:18:35;17.50;99.90
62912;DHT22;49111;51.028;4.218;2022-09-09T07:21:03;17.50;99.90
62912;DHT22;49111;51.028;4.218;2022-09-09T07:23:30;17.60;99.90
62912;DHT22;49111;51.028;4.218;2022-09-09T07:25:57;17.70;99.90
62912;DHT22;49111;51.028;4.218;2022-09-09T07:28:24;17.80;99.90
62912;DHT22;49111;51.028;4.218;2022-09-09T07:31:00;17.80;99.90
62912;DHT22;49111;51.028;4.218;2022-09-09T07:33:31;17.90;99.90
62912;DHT22;49111;51.028;4.218;2022-09-09T07:36:04;17.90;99.90
62912;DHT22;49111;51.028;4.218;2022-09-09T07:38:30;18.00;99.90
62912;DHT22;49111;51.028;4.218;2022-09-09T07:41:10;18.00;99.90
62912;DHT22;49111;51.028;4.218;2022-09-09T07:43:40;18.00;99.90
62912;DHT22;49111;51.028;4.218;2022-09-09T07:46:09;18.00;99.90
62912;DHT22;49111;51.028;4.218;2022-09-09T07:48:35;18.10;99.90
62912;DHT22;49111;51.028;4.218;2022-09-09T07:51:10;18.10;99.90
62912;DHT22;49111;51.028;4.218;2022-09-09T07:53:38;18.10;99.90
62912;DHT22;49111;51.028;4.218;2022-09-09T07:56:07;18.10;99.90
62912;DHT22;49111;51.028;4.218;2022-09-09T07:58:39;18.00;99.90
62912;DHT22;49111;51.028;4.218;2022-09-09T08:01:10;18.00;99.90
62912;DHT22;49111;51.028;4.218;2022-09-09T08:03:37;18.10;99.90
62912;DHT22;49111;51.028;4.218;2022-09-09T08:06:05;18.20;99.90
62912;DHT22;49111;51.028;4.218;2022-09-09T08:08:33;18.10;99.90
62912;DHT22;49111;51.028;4.218;2022-09-09T08:11:11;18.20;99.90
62912;DHT22;49111;51.028;4.218;2022-09-09T08:13:38;18.10;99.90
62912;DHT22;49111;51.028;4.218;2022-09-09T08:16:11;18.20;99.90
62912;DHT22;49111;51.028;4.218;2022-09-09T08:18:38;18.20;99.90
62912;DHT22;49111;51.028;4.218;2022-09-09T08:21:19;18.30;99.90
62912;DHT22;49111;51.028;4.218;2022-09-09T08:23:46;18.40;99.90
62912;DHT22;49111;51.028;4.218;2022-09-09T08:26:15;18.40;99.90
62912;DHT22;49111;51.028;4.218;2022-09-09T08:28:42;18.40;99.90
62912;DHT22;49111;51.028;4.218;2022-09-09T08:31:14;18.40;99.90
62912;DHT22;49111;51.028;4.218;2022-09-09T08:33:42;18.50;99.90
62912;DHT22;49111;51.028;4.218;2022-09-09T08:36:12;18.40;99.90
62912;DHT22;49111;51.028;4.218;2022-09-09T08:38:39;18.50;99.90
62912;DHT22;49111;51.028;4.218;2022-09-09T08:52:00;18.40;99.90
62912;DHT22;49111;51.028;4.218;2022-09-09T08:54:30;18.20;99.90
62912;DHT22;49111;51.028;4.218;2022-09-09T08:56:59;18.20;99.90
62912;DHT22;49111;51.028;4.218;2022-09-09T08:59:25;18.10;99.90
62912;DHT22;49111;51.028;4.218;2022-09-09T09:02:21;18.10;99.90
62912;DHT22;49111;51.028;4.218;2022-09-09T09:05:15;18.20;99.90
62912;DHT22;49111;51.028;4.218;2022-09-09T09:10:48;18.10;99.90
62912;DHT22;49111;51.028;4.218;2022-09-09T09:13:23;18.10;99.90
62912;DHT22;49111;51.028;4.218;2022-09-09T09:16:02;18.10;99.90
62912;DHT22;49111;51.028;4.218;2022-09-09T09:18:31;18.00;99.90
62912;DHT22;49111;51.028;4.218;2022-09-09T09:23:56;17.90;99.90
62912;DHT22;49111;51.028;4.218;2022-09-09T09:26:34;18.10;99.90
62912;DHT22;49111;51.028;4.218;2022-09-09T09:29:16;18.10;99.90
62912;DHT22;49111;51.028;4.218;2022-09-09T09:31:51;18.20;99.90
62912;DHT22;49111;51.028;4.218;2022-09-09T09:34:18;18.40;99.90
62912;DHT22;49111;51.028;4.218;2022-09-09T09:36:52;18.40;99.90
62912;DHT22;49111;51.028;4.218;2022-09-09T09:39:31;18.40;99.90
62912;DHT22;49111;51.028;4.218;2022-09-09T09:42:10;18.50;99.90
62912;DHT22;49111;51.028;4.218;2022-09-09T09:44:41;18.50;99.90
62912;DHT22;49111;51.028;4.218;2022-09-09T09:47:15;18.40;99.90
62912;DHT22;49111;51.028;4.218;2022-09-09T09:49:53;18.30;99.90
62912;DHT22;49111;51.028;4.218;2022-09-09T09:52:23;18.40;99.90
62912;DHT22;49111;51.028;4.218;2022-09-09T09:54:50;18.40;99.90
62912;DHT22;49111;51.028;4.218;2022-09-09T09:57:18;18.60;99.90
62912;DHT22;49111;51.028;4.218;2022-09-09T10:00:01;18.80;99.90
62912;DHT22;49111;51.028;4.218;2022-09-09T10:02:41;18.80;99.90
62912;DHT22;49111;51.028;4.218;2022-09-09T10:05:23;18.80;99.90
62912;DHT22;49111;51.028;4.218;2022-09-09T10:08:20;18.80;99.90
62912;DHT22;49111;51.028;4.218;2022-09-09T10:19:57;18.80;99.90
62912;DHT22;49111;51.028;4.218;2022-09-09T10:22:16;18.80;99.90
62912;DHT22;49111;51.028;4.218;2022-09-09T10:27:23;19.10;99.90
62912;DHT22;49111;51.028;4.218;2022-09-09T10:35:27;19.40;99.90
62912;DHT22;49111;51.028;4.218;2022-09-09T10:38:13;19.40;99.90
62912;DHT22;49111;51.028;4.218;2022-09-09T10:40:44;19.30;99.90
62912;DHT22;49111;51.028;4.218;2022-09-09T10:49:52;19.20;99.90
62912;DHT22;49111;51.028;4.218;2022-09-09T10:55:13;19.20;99.90
62912;DHT22;49111;51.028;4.218;2022-09-09T10:57:51;19.20;99.90
62912;DHT22;49111;51.028;4.218;2022-09-09T11:00:25;19.10;99.90
62912;DHT22;49111;51.028;4.218;2022-09-09T11:03:03;19.20;99.90
62912;DHT22;49111;51.028;4.218;2022-09-09T11:05:43;19.10;99.90
62912;DHT22;49111;51.028;4.218;2022-09-09T11:08:21;19.20;99.90
62912;DHT22;49111;51.028;4.218;2022-09-09T11:13:39;19.40;99.90
62912;DHT22;49111;51.028;4.218;2022-09-09T11:19:15;19.50;99.90
62912;DHT22;49111;51.028;4.218;2022-09-09T11:21:46;19.50;99.90
62912;DHT22;49111;51.028;4.218;2022-09-09T11:29:48;20.00;99.90
62912;DHT22;49111;51.028;4.218;2022-09-09T11:32:40;20.20;99.90
62912;DHT22;49111;51.028;4.218;2022-09-09T11:40:35;20.60;99.50
62912;DHT22;49111;51.028;4.218;2022-09-09T11:43:12;20.50;99.90
62912;DHT22;49111;51.028;4.218;2022-09-09T11:45:41;20.50;99.90
62912;DHT22;49111;51.028;4.218;2022-09-09T11:48:30;20.50;99.70
62912;DHT22;49111;51.028;4.218;2022-09-09T11:51:09;20.50;99.90
62912;DHT22;49111;51.028;4.218;2022-09-09T11:53:48;20.50;99.90
62912;DHT22;49111;51.028;4.218;2022-09-09T12:01:28;20.70;99.70
62912;DHT22;49111;51.028;4.218;2022-09-09T12:04:22;20.60;99.80
62912;DHT22;49111;51.028;4.218;2022-09-09T12:06:56;20.70;99.70
62912;DHT22;49111;51.028;4.218;2022-09-09T12:09:50;20.50;99.80
62912;DHT22;49111;51.028;4.218;2022-09-09T12:12:21;20.60;99.90
62912;DHT22;49111;51.028;4.218;2022-09-09T12:17:42;20.70;99.70
62912;DHT22;49111;51.028;4.218;2022-09-09T12:21:25;20.70;99.90
62912;DHT22;49111;51.028;4.218;2022-09-09T12:31:36;21.40;98.90
62912;DHT22;49111;51.028;4.218;2022-09-09T12:34:30;21.40;98.80
62912;DHT22;49111;51.028;4.218;2022-09-09T12:37:02;21.40;98.40
62912;DHT22;49111;51.028;4.218;2022-09-09T12:39:34;21.60;98.40
62912;DHT22;49111;51.028;4.218;2022-09-09T12:42:01;21.60;98.30
62912;DHT22;49111;51.028;4.218;2022-09-09T12:44:29;21.60;98.60
62912;DHT22;49111;51.028;4.218;2022-09-09T12:46:57;21.70;98.90
62912;DHT22;49111;51.028;4.218;2022-09-09T12:51:55;21.90;98.00
62912;DHT22;49111;51.028;4.218;2022-09-09T12:54:23;21.90;97.80
62912;DHT22;49111;51.028;4.218;2022-09-09T12:56:49;22.00;98.20
62912;DHT22;49111;51.028;4.218;2022-09-09T12:59:34;21.80;98.20
62912;DHT22;49111;51.028;4.218;2022-09-09T13:02:00;21.80;97.60
62912;DHT22;49111;51.028;4.218;2022-09-09T13:04:26;21.80;97.70
62912;DHT22;49111;51.028;4.218;2022-09-09T13:06:52;21.70;98.00
62912;DHT22;49111;51.028;4.218;2022-09-09T13:09:19;21.60;98.00
62912;DHT22;49111;51.028;4.218;2022-09-09T13:11:53;21.60;98.20
62912;DHT22;49111;51.028;4.218;2022-09-09T13:14:29;21.60;98.20
62912;DHT22;49111;51.028;4.218;2022-09-09T13:17:02;21.60;98.00
62912;DHT22;49111;51.028;4.218;2022-09-09T13:19:38;21.70;97.20
62912;DHT22;49111;51.028;4.218;2022-09-09T13:22:19;21.80;97.30
62912;DHT22;49111;51.028;4.218;2022-09-09T13:24:45;21.80;97.10
62912;DHT22;49111;51.028;4.218;2022-09-09T13:27:28;21.70;97.30
62912;DHT22;49111;51.028;4.218;2022-09-09T13:29:55;21.60;97.60
62912;DHT22;49111;51.028;4.218;2022-09-09T13:32:23;21.70;98.10
62912;DHT22;49111;51.028;4.218;2022-09-09T13:34:57;21.90;97.70
62912;DHT22;49111;51.028;4.218;2022-09-09T13:37:34;22.00;97.20
62912;DHT22;49111;51.028;4.218;2022-09-09T13:40:01;22.20;97.10
62912;DHT22;49111;51.028;4.218;2022-09-09T13:42:33;22.10;95.90
62912;DHT22;49111;51.028;4.218;2022-09-09T13:45:03;22.10;96.90
62912;DHT22;49111;51.028;4.218;2022-09-09T13:47:33;22.00;96.30
62912;DHT22;49111;51.028;4.218;2022-09-09T13:50:24;21.90;96.60
62912;DHT22;49111;51.028;4.218;2022-09-09T13:52:52;22.10;96.60
62912;DHT22;49111;51.028;4.218;2022-09-09T13:55:20;21.90;96.50
62912;DHT22;49111;51.028;4.218;2022-09-09T13:58:00;21.70;96.60
62912;DHT22;49111;51.028;4.218;2022-09-09T14:00:32;21.60;96.80
62912;DHT22;49111;51.028;4.218;2022-09-09T14:02:58;21.50;96.90
62912;DHT22;49111;51.028;4.218;2022-09-09T14:05:27;21.40;97.40
62912;DHT22;49111;51.028;4.218;2022-09-09T14:07:53;21.40;97.10
62912;DHT22;49111;51.028;4.218;2022-09-09T14:10:19;21.60;97.00
62912;DHT22;49111;51.028;4.218;2022-09-09T14:12:45;21.70;97.20
62912;DHT22;49111;51.028;4.218;2022-09-09T14:15:12;21.80;96.80
62912;DHT22;49111;51.028;4.218;2022-09-09T14:17:38;22.00;97.10
62912;DHT22;49111;51.028;4.218;2022-09-09T14:20:05;22.20;96.60
62912;DHT22;49111;51.028;4.218;2022-09-09T14:22:36;22.30;95.60
62912;DHT22;49111;51.028;4.218;2022-09-09T14:25:02;22.20;95.60
62912;DHT22;49111;51.028;4.218;2022-09-09T14:27:28;22.00;96.30
62912;DHT22;49111;51.028;4.218;2022-09-09T14:29:55;21.70;96.70
62912;DHT22;49111;51.028;4.218;2022-09-09T14:32:21;21.70;96.60
62912;DHT22;49111;51.028;4.218;2022-09-09T14:34:47;21.70;96.30
62912;DHT22;49111;51.028;4.218;2022-09-09T14:37:16;21.70;96.40
62912;DHT22;49111;51.028;4.218;2022-09-09T14:39:43;21.60;96.70
62912;DHT22;49111;51.028;4.218;2022-09-09T14:42:10;21.60;96.60
62912;DHT22;49111;51.028;4.218;2022-09-09T14:44:37;21.60;96.40
62912;DHT22;49111;51.028;4.218;2022-09-09T14:47:07;21.50;96.90
62912;DHT22;49111;51.028;4.218;2022-09-09T14:49:34;21.40;97.50
62912;DHT22;49111;51.028;4.218;2022-09-09T14:52:00;21.40;97.60
62912;DHT22;49111;51.028;4.218;2022-09-09T14:54:26;21.30;97.30
62912;DHT22;49111;51.028;4.218;2022-09-09T14:56:52;21.10;98.30
62912;DHT22;49111;51.028;4.218;2022-09-09T14:59:17;20.80;99.90
62912;DHT22;49111;51.028;4.218;2022-09-09T15:01:43;20.10;99.90
62912;DHT22;49111;51.028;4.218;2022-09-09T15:04:12;19.40;99.90
62912;DHT22;49111;51.028;4.218;2022-09-09T15:06:40;18.90;99.90
62912;DHT22;49111;51.028;4.218;2022-09-09T15:09:08;18.50;99.90
62912;DHT22;49111;51.028;4.218;2022-09-09T15:11:36;18.30;99.90
62912;DHT22;49111;51.028;4.218;2022-09-09T15:14:07;18.10;99.90
62912;DHT22;49111;51.028;4.218;2022-09-09T15:16:33;18.00;99.90
62912;DHT22;49111;51.028;4.218;2022-09-09T15:19:01;17.80;99.90
62912;DHT22;49111;51.028;4.218;2022-09-09T15:21:29;17.90;99.90
62912;DHT22;49111;51.028;4.218;2022-09-09T15:23:56;18.00;99.90
62912;DHT22;49111;51.028;4.218;2022-09-09T15:26:23;18.00;99.90
62912;DHT22;49111;51.028;4.218;2022-09-09T15:28:50;18.20;99.90
62912;DHT22;49111;51.028;4.218;2022-09-09T15:31:28;18.20;99.90
62912;DHT22;49111;51.028;4.218;2022-09-09T15:33:59;18.30;99.90
62912;DHT22;49111;51.028;4.218;2022-09-09T15:36:40;18.40;99.90
62912;DHT22;49111;51.028;4.218;2022-09-09T15:39:08;18.30;99.90
62912;DHT22;49111;51.028;4.218;2022-09-09T15:41:38;18.50;99.90
62912;DHT22;49111;51.028;4.218;2022-09-09T15:44:05;18.60;99.90
62912;DHT22;49111;51.028;4.218;2022-09-09T15:46:39;18.60;99.90
62912;DHT22;49111;51.028;4.218;2022-09-09T15:49:22;18.70;99.90
62912;DHT22;49111;51.028;4.218;2022-09-09T15:52:00;18.80;99.90
62912;DHT22;49111;51.028;4.218;2022-09-09T15:54:33;18.80;99.90
62912;DHT22;49111;51.028;4.218;2022-09-09T15:57:01;18.80;99.90
62912;DHT22;49111;51.028;4.218;2022-09-09T15:59:29;18.80;99.90
62912;DHT22;49111;51.028;4.218;2022-09-09T16:01:56;18.80;99.90
62912;DHT22;49111;51.028;4.218;2022-09-09T16:04:23;19.00;99.90
62912;DHT22;49111;51.028;4.218;2022-09-09T16:07:03;19.00;99.90
62912;DHT22;49111;51.028;4.218;2022-09-09T16:09:30;19.20;99.90
62912;DHT22;49111;51.028;4.218;2022-09-09T16:12:01;19.20;99.90
62912;DHT22;49111;51.028;4.218;2022-09-09T16:14:28;19.20;99.90
62912;DHT22;49111;51.028;4.218;2022-09-09T16:16:54;19.10;99.90
62912;DHT22;49111;51.028;4.218;2022-09-09T16:19:20;19.10;99.90
62912;DHT22;49111;51.028;4.218;2022-09-09T16:21:47;19.10;99.90
62912;DHT22;49111;51.028;4.218;2022-09-09T16:24:15;19.10;99.90
62912;DHT22;49111;51.028;4.218;2022-09-09T16:26:43;18.80;99.90
62912;DHT22;49111;51.028;4.218;2022-09-09T16:29:12;18.70;99.90
62912;DHT22;49111;51.028;4.218;2022-09-09T16:31:38;18.60;99.90
62912;DHT22;49111;51.028;4.218;2022-09-09T16:34:06;18.50;99.90
62912;DHT22;49111;51.028;4.218;2022-09-09T16:36:34;18.50;99.90
62912;DHT22;49111;51.028;4.218;2022-09-09T16:39:03;18.40;99.90
62912;DHT22;49111;51.028;4.218;2022-09-09T16:41:29;18.40;99.90
62912;DHT22;49111;51.028;4.218;2022-09-09T16:44:00;18.40;99.90
62912;DHT22;49111;51.028;4.218;2022-09-09T16:46:29;18.40;99.90
62912;DHT22;49111;51.028;4.218;2022-09-09T16:48:57;18.40;99.90
62912;DHT22;49111;51.028;4.218;2022-09-09T16:51:31;18.30;99.90
62912;DHT22;49111;51.028;4.218;2022-09-09T16:54:02;18.40;99.90
62912;DHT22;49111;51.028;4.218;2022-09-09T16:56:30;18.40;99.90
62912;DHT22;49111;51.028;4.218;2022-09-09T16:58:59;18.50;99.90
62912;DHT22;49111;51.028;4.218;2022-09-09T17:01:29;18.70;99.90
62912;DHT22;49111;51.028;4.218;2022-09-09T17:03:58;18.60;99.90
62912;DHT22;49111;51.028;4.218;2022-09-09T17:06:26;18.50;99.90
62912;DHT22;49111;51.028;4.218;2022-09-09T17:08:59;18.50;99.90
62912;DHT22;49111;51.028;4.218;2022-09-09T17:11:27;18.60;99.90
62912;DHT22;49111;51.028;4.218;2022-09-09T17:13:54;18.60;99.90
62912;DHT22;49111;51.028;4.218;2022-09-09T17:16:22;18.50;99.90
62912;DHT22;49111;51.028;4.218;2022-09-09T17:18:50;18.60;99.90
62912;DHT22;49111;51.028;4.218;2022-09-09T17:21:18;18.70;99.90
62912;DHT22;49111;51.028;4.218;2022-09-09T17:23:45;18.70;99.90
62912;DHT22;49111;51.028;4.218;2022-09-09T17:26:14;18.80;99.90
62912;DHT22;49111;51.028;4.218;2022-09-09T17:28:41;18.70;99.90
62912;DHT22;49111;51.028;4.218;2022-09-09T17:31:09;18.90;99.90
62912;DHT22;49111;51.028;4.218;2022-09-09T17:33:38;18.80;99.90
62912;DHT22;49111;51.028;4.218;2022-09-09T17:36:16;18.80;99.90
62912;DHT22;49111;51.028;4.218;2022-09-09T17:38:43;18.80;99.90
62912;DHT22;49111;51.028;4.218;2022-09-09T17:41:17;18.80;99.90
62912;DHT22;49111;51.028;4.218;2022-09-09T17:43:44;18.70;99.90
62912;DHT22;49111;51.028;4.218;2022-09-09T17:46:13;18.70;99.90
62912;DHT22;49111;51.028;4.218;2022-09-09T17:48:40;18.60;99.90
62912;DHT22;49111;51.028;4.218;2022-09-09T17:51:08;18.70;99.90
62912;DHT22;49111;51.028;4.218;2022-09-09T17:53:43;18.60;99.90